sensor_id;sensor_type;location;lat;lon;timestamp;temperature;humidity
5938;DHT22;2994;51.220;4.412;2023-02-11T00:01:08;9.88;69.40
5938;DHT22;2994;51.220;4.412;2023-02-11T00:03:34;9.81;69.78
5938;DHT22;2994;51.220;4.412;2023-02-11T00:06:02;9.76;69.89
5938;DHT22;2994;51.220;4.412;2023-02-11T00:08:28;9.69;70.09
5938;DHT22;2994;51.220;4.412;2023-02-11T00:10:55;9.56;70.47
5938;DHT22;2994;51.220;4.412;2023-02-11T00:13:21;9.68;70.03
5938;DHT22;2994;51.220;4.412;2023-02-11T00:15:47;9.67;70.15
5938;DHT22;2994;51.220;4.412;2023-02-11T00:18:12;9.72;70.22
5938;DHT22;2994;51.220;4.412;2023-02-11T00:20:38;9.74;70.13
5938;DHT22;2994;51.220;4.412;2023-02-11T00:23:04;9.75;70.07
5938;DHT22;2994;51.220;4.412;2023-02-11T00:25:30;9.75;70.17
5938;DHT22;2994;51.220;4.412;2023-02-11T00:27:56;9.75;70.08
5938;DHT22;2994;51.220;4.412;2023-02-11T00:30:21;9.77;70.06
5938;DHT22;2994;51.220;4.412;2023-02-11T00:32:47;9.79;69.83
5938;DHT22;2994;51.220;4.412;2023-02-11T00:35:12;9.68;70.27
5938;DHT22;2994;51.220;4.412;2023-02-11T00:37:38;9.67;70.16
5938;DHT22;2994;51.220;4.412;2023-02-11T00:40:04;9.70;69.86
5938;DHT22;2994;51.220;4.412;2023-02-11T00:42:30;9.70;69.97
5938;DHT22;2994;51.220;4.412;2023-02-11T00:44:56;9.71;70.01
5938;DHT22;2994;51.220;4.412;2023-02-11T00:47:21;9.74;69.97
5938;DHT22;2994;51.220;4.412;2023-02-11T00:49:46;9.57;70.58
5938;DHT22;2994;51.220;4.412;2023-02-11T00:52:12;9.68;70.00
5938;DHT22;2994;51.220;4.412;2023-02-11T00:54:37;9.69;69.91
5938;DHT22;2994;51.220;4.412;2023-02-11T00:57:03;9.72;69.93
5938;DHT22;2994;51.220;4.412;2023-02-11T00:59:28;9.68;69.90
5938;DHT22;2994;51.220;4.412;2023-02-11T01:01:54;9.56;70.39
5938;DHT22;2994;51.220;4.412;2023-02-11T01:04:20;9.55;70.36
5938;DHT22;2994;51.220;4.412;2023-02-11T01:06:45;9.60;70.44
5938;DHT22;2994;51.220;4.412;2023-02-11T01:09:11;9.64;70.19
5938;DHT22;2994;51.220;4.412;2023-02-11T01:11:36;9.65;70.39
5938;DHT22;2994;51.220;4.412;2023-02-11T01:14:02;9.69;70.09
5938;DHT22;2994;51.220;4.412;2023-02-11T01:16:27;9.54;70.87
5938;DHT22;2994;51.220;4.412;2023-02-11T01:18:54;9.55;70.72
5938;DHT22;2994;51.220;4.412;2023-02-11T01:21:19;9.61;70.55
5938;DHT22;2994;51.220;4.412;2023-02-11T01:23:45;9.56;70.71
5938;DHT22;2994;51.220;4.412;2023-02-11T01:26:10;9.59;70.59
5938;DHT22;2994;51.220;4.412;2023-02-11T01:28:36;9.59;70.61
5938;DHT22;2994;51.220;4.412;2023-02-11T01:31:02;9.57;70.74
5938;DHT22;2994;51.220;4.412;2023-02-11T01:33:28;9.38;71.43
5938;DHT22;2994;51.220;4.412;2023-02-11T01:35:54;9.49;71.00
5938;DHT22;2994;51.220;4.412;2023-02-11T01:38:22;9.60;70.76
5938;DHT22;2994;51.220;4.412;2023-02-11T01:40:50;9.66;70.47
5938;DHT22;2994;51.220;4.412;2023-02-11T01:43:16;9.72;70.44
5938;DHT22;2994;51.220;4.412;2023-02-11T01:48:23;9.77;70.29
5938;DHT22;2994;51.220;4.412;2023-02-11T01:50:51;9.75;70.15
5938;DHT22;2994;51.220;4.412;2023-02-11T01:53:19;9.75;70.14
5938;DHT22;2994;51.220;4.412;2023-02-11T01:56:04;9.75;70.23
5938;DHT22;2994;51.220;4.412;2023-02-11T01:58:50;9.76;70.32
5938;DHT22;2994;51.220;4.412;2023-02-11T02:01:21;9.66;70.74
5938;DHT22;2994;51.220;4.412;2023-02-11T02:03:48;9.71;70.36
5938;DHT22;2994;51.220;4.412;2023-02-11T02:06:25;9.75;70.38
5938;DHT22;2994;51.220;4.412;2023-02-11T02:08:55;9.78;70.23
5938;DHT22;2994;51.220;4.412;2023-02-11T02:11:21;9.74;70.43
5938;DHT22;2994;51.220;4.412;2023-02-11T02:13:47;9.77;70.36
5938;DHT22;2994;51.220;4.412;2023-02-11T02:16:15;9.76;70.52
5938;DHT22;2994;51.220;4.412;2023-02-11T02:24:21;9.60;71.15
5938;DHT22;2994;51.220;4.412;2023-02-11T02:32:28;9.69;70.65
5938;DHT22;2994;51.220;4.412;2023-02-11T02:40:03;9.78;70.66
5938;DHT22;2994;51.220;4.412;2023-02-11T02:42:31;9.83;70.53
5938;DHT22;2994;51.220;4.412;2023-02-11T02:44:57;9.84;70.59
5938;DHT22;2994;51.220;4.412;2023-02-11T02:47:22;9.77;70.73
5938;DHT22;2994;51.220;4.412;2023-02-11T02:49:48;9.82;70.64
5938;DHT22;2994;51.220;4.412;2023-02-11T02:54:53;9.75;71.02
5938;DHT22;2994;51.220;4.412;2023-02-11T03:06:08;9.83;70.72
5938;DHT22;2994;51.220;4.412;2023-02-11T03:11:06;9.82;70.86
5938;DHT22;2994;51.220;4.412;2023-02-11T03:13:35;9.81;70.92
5938;DHT22;2994;51.220;4.412;2023-02-11T03:16:06;9.79;70.99
5938;DHT22;2994;51.220;4.412;2023-02-11T03:18:34;9.79;70.90
5938;DHT22;2994;51.220;4.412;2023-02-11T03:21:01;9.79;71.03
5938;DHT22;2994;51.220;4.412;2023-02-11T03:26:15;9.85;70.92
5938;DHT22;2994;51.220;4.412;2023-02-11T03:28:54;9.89;70.83
5938;DHT22;2994;51.220;4.412;2023-02-11T03:31:28;9.89;70.82
5938;DHT22;2994;51.220;4.412;2023-02-11T03:36:31;9.88;70.90
5938;DHT22;2994;51.220;4.412;2023-02-11T03:39:01;9.90;70.94
5938;DHT22;2994;51.220;4.412;2023-02-11T03:41:29;9.92;70.90
5938;DHT22;2994;51.220;4.412;2023-02-11T03:43:57;9.92;70.77
5938;DHT22;2994;51.220;4.412;2023-02-11T03:46:30;9.93;70.92
5938;DHT22;2994;51.220;4.412;2023-02-11T03:49:01;9.94;70.85
5938;DHT22;2994;51.220;4.412;2023-02-11T03:51:28;9.94;70.97
5938;DHT22;2994;51.220;4.412;2023-02-11T03:53:56;9.92;70.98
5938;DHT22;2994;51.220;4.412;2023-02-11T03:56:26;9.91;70.96
5938;DHT22;2994;51.220;4.412;2023-02-11T03:58:53;9.88;71.10
5938;DHT22;2994;51.220;4.412;2023-02-11T04:01:19;9.93;70.87
5938;DHT22;2994;51.220;4.412;2023-02-11T04:03:44;9.92;70.92
5938;DHT22;2994;51.220;4.412;2023-02-11T04:06:10;9.86;71.35
5938;DHT22;2994;51.220;4.412;2023-02-11T04:08:35;9.91;71.19
5938;DHT22;2994;51.220;4.412;2023-02-11T04:11:01;9.94;71.11
5938;DHT22;2994;51.220;4.412;2023-02-11T04:13:26;9.94;71.19
5938;DHT22;2994;51.220;4.412;2023-02-11T04:15:52;9.97;71.04
5938;DHT22;2994;51.220;4.412;2023-02-11T04:18:17;9.96;71.11
5938;DHT22;2994;51.220;4.412;2023-02-11T04:20:43;9.99;70.86
5938;DHT22;2994;51.220;4.412;2023-02-11T04:23:08;10.01;70.94
5938;DHT22;2994;51.220;4.412;2023-02-11T04:25:34;9.97;71.15
5938;DHT22;2994;51.220;4.412;2023-02-11T04:28:00;9.98;71.16
5938;DHT22;2994;51.220;4.412;2023-02-11T04:30:25;10.01;71.14
5938;DHT22;2994;51.220;4.412;2023-02-11T04:32:51;9.98;71.02
5938;DHT22;2994;51.220;4.412;2023-02-11T04:35:18;9.98;71.16
5938;DHT22;2994;51.220;4.412;2023-02-11T04:37:43;9.98;71.26
5938;DHT22;2994;51.220;4.412;2023-02-11T04:40:09;9.93;71.27
5938;DHT22;2994;51.220;4.412;2023-02-11T04:42:35;9.94;71.42
5938;DHT22;2994;51.220;4.412;2023-02-11T04:45:00;9.91;71.58
5938;DHT22;2994;51.220;4.412;2023-02-11T04:47:26;9.92;71.38
5938;DHT22;2994;51.220;4.412;2023-02-11T04:49:51;9.90;71.41
5938;DHT22;2994;51.220;4.412;2023-02-11T04:52:17;9.84;71.77
5938;DHT22;2994;51.220;4.412;2023-02-11T04:54:42;9.90;71.71
5938;DHT22;2994;51.220;4.412;2023-02-11T04:57:08;9.77;72.30
5938;DHT22;2994;51.220;4.412;2023-02-11T04:59:33;9.90;71.74
5938;DHT22;2994;51.220;4.412;2023-02-11T05:01:58;9.90;71.89
5938;DHT22;2994;51.220;4.412;2023-02-11T05:04:24;9.89;71.93
5938;DHT22;2994;51.220;4.412;2023-02-11T05:06:49;9.89;72.16
5938;DHT22;2994;51.220;4.412;2023-02-11T05:09:15;9.83;72.31
5938;DHT22;2994;51.220;4.412;2023-02-11T05:11:41;9.86;72.34
5938;DHT22;2994;51.220;4.412;2023-02-11T05:14:07;9.92;71.96
5938;DHT22;2994;51.220;4.412;2023-02-11T05:16:32;9.95;72.03
5938;DHT22;2994;51.220;4.412;2023-02-11T05:18:58;9.97;71.96
5938;DHT22;2994;51.220;4.412;2023-02-11T05:21:23;9.90;72.38
5938;DHT22;2994;51.220;4.412;2023-02-11T05:23:49;9.92;72.32
5938;DHT22;2994;51.220;4.412;2023-02-11T05:26:14;9.89;72.38
5938;DHT22;2994;51.220;4.412;2023-02-11T05:28:40;9.82;72.76
5938;DHT22;2994;51.220;4.412;2023-02-11T05:31:06;9.88;72.59
5938;DHT22;2994;51.220;4.412;2023-02-11T05:33:32;9.83;72.87
5938;DHT22;2994;51.220;4.412;2023-02-11T05:36:03;9.90;72.56
5938;DHT22;2994;51.220;4.412;2023-02-11T05:38:28;9.82;72.97
5938;DHT22;2994;51.220;4.412;2023-02-11T05:40:54;9.86;72.94
5938;DHT22;2994;51.220;4.412;2023-02-11T05:43:21;9.81;73.12
5938;DHT22;2994;51.220;4.412;2023-02-11T05:45:46;9.91;72.84
5938;DHT22;2994;51.220;4.412;2023-02-11T05:48:11;9.93;72.67
5938;DHT22;2994;51.220;4.412;2023-02-11T05:50:37;9.94;72.55
5938;DHT22;2994;51.220;4.412;2023-02-11T05:53:03;9.95;72.62
5938;DHT22;2994;51.220;4.412;2023-02-11T05:55:31;9.94;72.67
5938;DHT22;2994;51.220;4.412;2023-02-11T05:57:57;9.97;72.65
5938;DHT22;2994;51.220;4.412;2023-02-11T06:00:23;9.97;72.44
5938;DHT22;2994;51.220;4.412;2023-02-11T06:02:48;9.95;72.69
5938;DHT22;2994;51.220;4.412;2023-02-11T06:05:13;10.00;72.58
5938;DHT22;2994;51.220;4.412;2023-02-11T06:07:39;10.01;72.41
5938;DHT22;2994;51.220;4.412;2023-02-11T06:10:05;9.97;72.66
5938;DHT22;2994;51.220;4.412;2023-02-11T06:12:31;9.94;72.86
5938;DHT22;2994;51.220;4.412;2023-02-11T06:14:56;9.94;73.05
5938;DHT22;2994;51.220;4.412;2023-02-11T06:17:22;9.96;72.96
5938;DHT22;2994;51.220;4.412;2023-02-11T06:19:48;9.98;72.93
5938;DHT22;2994;51.220;4.412;2023-02-11T06:22:13;9.97;72.84
5938;DHT22;2994;51.220;4.412;2023-02-11T06:24:38;9.98;72.90
5938;DHT22;2994;51.220;4.412;2023-02-11T06:27:04;9.95;73.03
5938;DHT22;2994;51.220;4.412;2023-02-11T06:29:30;10.00;72.90
5938;DHT22;2994;51.220;4.412;2023-02-11T06:31:55;10.00;72.90
5938;DHT22;2994;51.220;4.412;2023-02-11T06:34:20;9.97;73.38
5938;DHT22;2994;51.220;4.412;2023-02-11T06:36:46;9.99;72.99
5938;DHT22;2994;51.220;4.412;2023-02-11T06:39:12;9.94;73.30
5938;DHT22;2994;51.220;4.412;2023-02-11T06:41:38;9.96;73.30
5938;DHT22;2994;51.220;4.412;2023-02-11T06:44:04;10.00;73.00
5938;DHT22;2994;51.220;4.412;2023-02-11T06:46:29;10.03;73.01
5938;DHT22;2994;51.220;4.412;2023-02-11T06:48:55;10.03;73.03
5938;DHT22;2994;51.220;4.412;2023-02-11T06:51:21;9.99;73.20
5938;DHT22;2994;51.220;4.412;2023-02-11T06:53:46;10.03;73.19
5938;DHT22;2994;51.220;4.412;2023-02-11T06:56:15;9.98;73.49
5938;DHT22;2994;51.220;4.412;2023-02-11T06:58:41;9.85;74.09
5938;DHT22;2994;51.220;4.412;2023-02-11T07:01:11;9.97;73.61
5938;DHT22;2994;51.220;4.412;2023-02-11T07:03:38;9.99;73.58
5938;DHT22;2994;51.220;4.412;2023-02-11T07:06:06;10.00;73.67
5938;DHT22;2994;51.220;4.412;2023-02-11T07:08:33;9.90;74.22
5938;DHT22;2994;51.220;4.412;2023-02-11T07:10:58;9.96;74.05
5938;DHT22;2994;51.220;4.412;2023-02-11T07:13:24;10.03;73.68
5938;DHT22;2994;51.220;4.412;2023-02-11T07:15:49;10.07;73.57
5938;DHT22;2994;51.220;4.412;2023-02-11T07:18:18;10.07;73.64
5938;DHT22;2994;51.220;4.412;2023-02-11T07:20:43;10.07;73.56
5938;DHT22;2994;51.220;4.412;2023-02-11T07:23:09;10.10;73.48
5938;DHT22;2994;51.220;4.412;2023-02-11T07:25:35;10.10;73.41
5938;DHT22;2994;51.220;4.412;2023-02-11T07:28:00;10.07;73.59
5938;DHT22;2994;51.220;4.412;2023-02-11T07:30:26;10.03;73.92
5938;DHT22;2994;51.220;4.412;2023-02-11T07:32:51;10.08;73.61
5938;DHT22;2994;51.220;4.412;2023-02-11T07:35:17;10.07;73.80
5938;DHT22;2994;51.220;4.412;2023-02-11T07:37:42;10.12;73.61
5938;DHT22;2994;51.220;4.412;2023-02-11T07:40:08;10.16;73.64
5938;DHT22;2994;51.220;4.412;2023-02-11T07:42:35;10.18;73.65
5938;DHT22;2994;51.220;4.412;2023-02-11T07:45:00;10.19;73.57
5938;DHT22;2994;51.220;4.412;2023-02-11T07:47:26;10.20;73.63
5938;DHT22;2994;51.220;4.412;2023-02-11T07:49:51;10.20;73.69
5938;DHT22;2994;51.220;4.412;2023-02-11T07:52:19;10.20;73.77
5938;DHT22;2994;51.220;4.412;2023-02-11T07:54:47;10.22;73.58
5938;DHT22;2994;51.220;4.412;2023-02-11T07:57:12;10.20;73.86
5938;DHT22;2994;51.220;4.412;2023-02-11T07:59:38;10.24;73.74
5938;DHT22;2994;51.220;4.412;2023-02-11T08:02:03;10.21;73.99
5938;DHT22;2994;51.220;4.412;2023-02-11T08:04:29;10.24;73.86
5938;DHT22;2994;51.220;4.412;2023-02-11T08:06:54;10.27;73.78
5938;DHT22;2994;51.220;4.412;2023-02-11T08:09:22;10.27;73.90
5938;DHT22;2994;51.220;4.412;2023-02-11T08:11:48;10.31;73.83
5938;DHT22;2994;51.220;4.412;2023-02-11T08:14:13;10.34;73.87
5938;DHT22;2994;51.220;4.412;2023-02-11T08:16:39;10.31;73.93
5938;DHT22;2994;51.220;4.412;2023-02-11T08:19:09;10.36;73.75
5938;DHT22;2994;51.220;4.412;2023-02-11T08:21:36;10.35;73.96
5938;DHT22;2994;51.220;4.412;2023-02-11T08:24:02;10.33;74.34
5938;DHT22;2994;51.220;4.412;2023-02-11T08:26:29;10.34;74.17
5938;DHT22;2994;51.220;4.412;2023-02-11T08:28:57;10.29;74.44
5938;DHT22;2994;51.220;4.412;2023-02-11T08:31:26;10.36;74.29
5938;DHT22;2994;51.220;4.412;2023-02-11T08:33:52;10.25;74.83
5938;DHT22;2994;51.220;4.412;2023-02-11T08:36:23;10.18;75.16
5938;DHT22;2994;51.220;4.412;2023-02-11T08:38:49;10.27;74.78
5938;DHT22;2994;51.220;4.412;2023-02-11T08:41:16;10.27;74.92
5938;DHT22;2994;51.220;4.412;2023-02-11T08:43:43;10.34;74.50
5938;DHT22;2994;51.220;4.412;2023-02-11T08:46:12;10.33;74.81
5938;DHT22;2994;51.220;4.412;2023-02-11T08:48:38;10.35;74.60
5938;DHT22;2994;51.220;4.412;2023-02-11T08:51:08;10.33;74.78
5938;DHT22;2994;51.220;4.412;2023-02-11T08:53:35;10.36;74.51
5938;DHT22;2994;51.220;4.412;2023-02-11T08:56:01;10.25;75.15
5938;DHT22;2994;51.220;4.412;2023-02-11T08:58:26;10.36;74.76
5938;DHT22;2994;51.220;4.412;2023-02-11T09:00:52;10.35;74.79
5938;DHT22;2994;51.220;4.412;2023-02-11T09:03:17;10.42;74.63
5938;DHT22;2994;51.220;4.412;2023-02-11T09:05:45;10.43;74.60
5938;DHT22;2994;51.220;4.412;2023-02-11T09:08:12;10.48;74.57
5938;DHT22;2994;51.220;4.412;2023-02-11T09:10:38;10.50;74.41
5938;DHT22;2994;51.220;4.412;2023-02-11T09:13:04;10.46;74.66
5938;DHT22;2994;51.220;4.412;2023-02-11T09:15:30;10.45;74.83
5938;DHT22;2994;51.220;4.412;2023-02-11T09:17:56;10.55;74.46
5938;DHT22;2994;51.220;4.412;2023-02-11T09:20:21;10.56;74.45
5938;DHT22;2994;51.220;4.412;2023-02-11T09:22:47;10.57;74.53
5938;DHT22;2994;51.220;4.412;2023-02-11T09:25:12;10.59;74.52
5938;DHT22;2994;51.220;4.412;2023-02-11T09:27:38;10.58;74.64
5938;DHT22;2994;51.220;4.412;2023-02-11T09:30:04;10.65;74.43
5938;DHT22;2994;51.220;4.412;2023-02-11T09:32:29;10.66;74.42
5938;DHT22;2994;51.220;4.412;2023-02-11T09:34:55;10.69;74.53
5938;DHT22;2994;51.220;4.412;2023-02-11T09:37:20;10.74;74.25
5938;DHT22;2994;51.220;4.412;2023-02-11T09:39:46;10.78;74.19
5938;DHT22;2994;51.220;4.412;2023-02-11T09:44:37;10.75;74.43
5938;DHT22;2994;51.220;4.412;2023-02-11T09:47:05;10.74;74.60
5938;DHT22;2994;51.220;4.412;2023-02-11T09:49:39;10.82;74.31
5938;DHT22;2994;51.220;4.412;2023-02-11T09:52:32;10.86;74.23
5938;DHT22;2994;51.220;4.412;2023-02-11T09:55:04;10.86;74.15
5938;DHT22;2994;51.220;4.412;2023-02-11T09:57:36;10.86;74.24
5938;DHT22;2994;51.220;4.412;2023-02-11T10:00:16;10.87;74.18
5938;DHT22;2994;51.220;4.412;2023-02-11T10:05:47;10.93;74.03
5938;DHT22;2994;51.220;4.412;2023-02-11T10:11:39;10.94;74.28
5938;DHT22;2994;51.220;4.412;2023-02-11T10:20:14;10.98;74.19
5938;DHT22;2994;51.220;4.412;2023-02-11T10:22:58;10.96;74.35
5938;DHT22;2994;51.220;4.412;2023-02-11T10:25:37;10.92;74.61
5938;DHT22;2994;51.220;4.412;2023-02-11T10:28:30;10.96;74.68
5938;DHT22;2994;51.220;4.412;2023-02-11T10:30:58;11.00;74.42
5938;DHT22;2994;51.220;4.412;2023-02-11T10:33:33;11.05;74.22
5938;DHT22;2994;51.220;4.412;2023-02-11T10:36:02;11.12;74.12
5938;DHT22;2994;51.220;4.412;2023-02-11T10:38:28;11.10;74.36
5938;DHT22;2994;51.220;4.412;2023-02-11T10:40:53;11.15;74.23
5938;DHT22;2994;51.220;4.412;2023-02-11T10:43:23;11.16;74.15
5938;DHT22;2994;51.220;4.412;2023-02-11T10:45:52;11.20;74.04
5938;DHT22;2994;51.220;4.412;2023-02-11T10:48:35;11.25;73.94
5938;DHT22;2994;51.220;4.412;2023-02-11T10:51:15;11.26;74.05
5938;DHT22;2994;51.220;4.412;2023-02-11T10:53:41;11.31;73.78
5938;DHT22;2994;51.220;4.412;2023-02-11T10:56:10;11.25;74.16
5938;DHT22;2994;51.220;4.412;2023-02-11T10:58:43;11.31;74.01
5938;DHT22;2994;51.220;4.412;2023-02-11T11:01:10;11.37;73.83
5938;DHT22;2994;51.220;4.412;2023-02-11T11:03:39;11.41;73.70
5938;DHT22;2994;51.220;4.412;2023-02-11T11:06:10;11.46;73.53
5938;DHT22;2994;51.220;4.412;2023-02-11T11:08:47;11.42;73.82
5938;DHT22;2994;51.220;4.412;2023-02-11T11:11:18;11.44;73.63
5938;DHT22;2994;51.220;4.412;2023-02-11T11:16:26;11.48;73.67
5938;DHT22;2994;51.220;4.412;2023-02-11T11:19:13;11.41;73.98
5938;DHT22;2994;51.220;4.412;2023-02-11T11:21:50;11.47;73.64
5938;DHT22;2994;51.220;4.412;2023-02-11T11:24:20;11.51;73.49
5938;DHT22;2994;51.220;4.412;2023-02-11T11:26:51;11.52;73.66
5938;DHT22;2994;51.220;4.412;2023-02-11T11:31:53;11.48;73.89
5938;DHT22;2994;51.220;4.412;2023-02-11T11:34:33;11.54;73.64
5938;DHT22;2994;51.220;4.412;2023-02-11T11:37:08;11.52;73.74
5938;DHT22;2994;51.220;4.412;2023-02-11T11:39:34;11.52;73.82
5938;DHT22;2994;51.220;4.412;2023-02-11T11:42:02;11.52;73.87
5938;DHT22;2994;51.220;4.412;2023-02-11T11:44:32;11.57;73.77
5938;DHT22;2994;51.220;4.412;2023-02-11T11:49:54;11.66;73.56
5938;DHT22;2994;51.220;4.412;2023-02-11T11:55:04;11.70;73.47
5938;DHT22;2994;51.220;4.412;2023-02-11T11:57:33;11.73;73.38
5938;DHT22;2994;51.220;4.412;2023-02-11T12:00:00;11.71;73.51
5938;DHT22;2994;51.220;4.412;2023-02-11T12:05:46;11.72;73.43
5938;DHT22;2994;51.220;4.412;2023-02-11T12:11:38;11.71;73.59
5938;DHT22;2994;51.220;4.412;2023-02-11T12:22:03;11.76;73.77
5938;DHT22;2994;51.220;4.412;2023-02-11T12:24:47;11.79;73.69
5938;DHT22;2994;51.220;4.412;2023-02-11T12:43:43;11.78;73.96
5938;DHT22;2994;51.220;4.412;2023-02-11T12:55:23;11.92;73.39
5938;DHT22;2994;51.220;4.412;2023-02-11T12:57:49;11.98;73.15
5938;DHT22;2994;51.220;4.412;2023-02-11T13:00:19;11.98;73.27
5938;DHT22;2994;51.220;4.412;2023-02-11T13:05:27;11.97;73.38
5938;DHT22;2994;51.220;4.412;2023-02-11T13:08:16;11.97;73.43
5938;DHT22;2994;51.220;4.412;2023-02-11T13:10:49;11.96;73.50
5938;DHT22;2994;51.220;4.412;2023-02-11T13:13:21;11.96;73.41
5938;DHT22;2994;51.220;4.412;2023-02-11T13:15:58;12.00;73.35
5938;DHT22;2994;51.220;4.412;2023-02-11T13:18:31;11.94;73.61
5938;DHT22;2994;51.220;4.412;2023-02-11T13:26:38;11.93;73.78
5938;DHT22;2994;51.220;4.412;2023-02-11T13:29:17;12.01;73.32
5938;DHT22;2994;51.220;4.412;2023-02-11T13:32:06;12.01;73.35
5938;DHT22;2994;51.220;4.412;2023-02-11T13:37:24;12.01;73.46
5938;DHT22;2994;51.220;4.412;2023-02-11T13:39:58;11.98;73.52
5938;DHT22;2994;51.220;4.412;2023-02-11T13:42:23;11.87;74.09
5938;DHT22;2994;51.220;4.412;2023-02-11T13:44:49;11.93;73.71
5938;DHT22;2994;51.220;4.412;2023-02-11T13:47:28;11.98;73.54
5938;DHT22;2994;51.220;4.412;2023-02-11T13:49:54;12.02;73.31
5938;DHT22;2994;51.220;4.412;2023-02-11T13:52:24;11.98;73.64
5938;DHT22;2994;51.220;4.412;2023-02-11T13:54:52;12.00;73.55
5938;DHT22;2994;51.220;4.412;2023-02-11T13:59:46;12.06;73.42
5938;DHT22;2994;51.220;4.412;2023-02-11T14:11:02;12.04;73.50
5938;DHT22;2994;51.220;4.412;2023-02-11T14:16:10;12.02;73.87
5938;DHT22;2994;51.220;4.412;2023-02-11T14:18:57;12.01;74.12
5938;DHT22;2994;51.220;4.412;2023-02-11T14:26:46;12.08;73.90
5938;DHT22;2994;51.220;4.412;2023-02-11T14:29:34;12.11;73.72
5938;DHT22;2994;51.220;4.412;2023-02-11T14:37:22;12.06;74.09
5938;DHT22;2994;51.220;4.412;2023-02-11T14:42:42;12.07;73.93
5938;DHT22;2994;51.220;4.412;2023-02-11T14:45:12;12.04;74.27
5938;DHT22;2994;51.220;4.412;2023-02-11T14:47:45;12.12;74.08
5938;DHT22;2994;51.220;4.412;2023-02-11T14:50:25;12.06;74.24
5938;DHT22;2994;51.220;4.412;2023-02-11T14:52:52;12.02;74.35
5938;DHT22;2994;51.220;4.412;2023-02-11T14:55:33;12.06;74.26
5938;DHT22;2994;51.220;4.412;2023-02-11T15:01:02;11.97;74.53
5938;DHT22;2994;51.220;4.412;2023-02-11T15:03:40;11.89;74.96
5938;DHT22;2994;51.220;4.412;2023-02-11T15:06:20;11.92;74.86
5938;DHT22;2994;51.220;4.412;2023-02-11T15:08:55;11.97;74.71
5938;DHT22;2994;51.220;4.412;2023-02-11T15:11:23;11.88;75.13
5938;DHT22;2994;51.220;4.412;2023-02-11T15:13:49;11.93;74.87
5938;DHT22;2994;51.220;4.412;2023-02-11T15:16:19;11.91;74.89
5938;DHT22;2994;51.220;4.412;2023-02-11T15:19:01;11.91;74.95
5938;DHT22;2994;51.220;4.412;2023-02-11T15:21:31;11.93;74.89
5938;DHT22;2994;51.220;4.412;2023-02-11T15:24:02;12.01;74.74
5938;DHT22;2994;51.220;4.412;2023-02-11T15:26:30;12.03;74.60
5938;DHT22;2994;51.220;4.412;2023-02-11T15:28:57;12.03;74.58
5938;DHT22;2994;51.220;4.412;2023-02-11T15:31:25;12.03;74.55
5938;DHT22;2994;51.220;4.412;2023-02-11T15:33:52;12.08;74.42
5938;DHT22;2994;51.220;4.412;2023-02-11T15:36:22;12.01;74.64
5938;DHT22;2994;51.220;4.412;2023-02-11T15:39:15;11.78;75.69
5938;DHT22;2994;51.220;4.412;2023-02-11T15:41:40;11.92;74.99
5938;DHT22;2994;51.220;4.412;2023-02-11T15:44:29;12.01;74.76
5938;DHT22;2994;51.220;4.412;2023-02-11T15:46:55;12.02;74.57
5938;DHT22;2994;51.220;4.412;2023-02-11T15:49:20;12.04;74.56
5938;DHT22;2994;51.220;4.412;2023-02-11T15:51:47;12.10;74.44
5938;DHT22;2994;51.220;4.412;2023-02-11T15:56:44;12.14;74.31
5938;DHT22;2994;51.220;4.412;2023-02-11T15:59:17;12.16;74.09
5938;DHT22;2994;51.220;4.412;2023-02-11T16:01:43;12.17;73.97
5938;DHT22;2994;51.220;4.412;2023-02-11T16:04:24;12.13;74.09
5938;DHT22;2994;51.220;4.412;2023-02-11T16:06:51;12.07;74.24
5938;DHT22;2994;51.220;4.412;2023-02-11T16:09:33;12.05;74.26
5938;DHT22;2994;51.220;4.412;2023-02-11T16:12:23;12.10;74.13
5938;DHT22;2994;51.220;4.412;2023-02-11T16:14:51;12.12;73.95
5938;DHT22;2994;51.220;4.412;2023-02-11T16:17:25;12.13;74.22
5938;DHT22;2994;51.220;4.412;2023-02-11T16:19:52;12.12;74.10
5938;DHT22;2994;51.220;4.412;2023-02-11T16:22:28;12.12;74.10
5938;DHT22;2994;51.220;4.412;2023-02-11T16:24:57;12.12;73.96
5938;DHT22;2994;51.220;4.412;2023-02-11T16:27:40;12.08;74.22
5938;DHT22;2994;51.220;4.412;2023-02-11T16:32:45;11.91;74.89
5938;DHT22;2994;51.220;4.412;2023-02-11T16:35:11;12.05;74.35
5938;DHT22;2994;51.220;4.412;2023-02-11T16:37:37;12.08;74.12
5938;DHT22;2994;51.220;4.412;2023-02-11T16:40:03;12.03;74.36
5938;DHT22;2994;51.220;4.412;2023-02-11T16:42:29;11.98;74.48
5938;DHT22;2994;51.220;4.412;2023-02-11T16:44:54;11.97;74.52
5938;DHT22;2994;51.220;4.412;2023-02-11T16:47:25;11.98;74.57
5938;DHT22;2994;51.220;4.412;2023-02-11T16:49:51;12.03;74.33
5938;DHT22;2994;51.220;4.412;2023-02-11T16:52:17;12.01;74.44
5938;DHT22;2994;51.220;4.412;2023-02-11T16:54:44;12.03;74.39
5938;DHT22;2994;51.220;4.412;2023-02-11T16:57:14;11.93;74.92
5938;DHT22;2994;51.220;4.412;2023-02-11T16:59:40;12.06;74.27
5938;DHT22;2994;51.220;4.412;2023-02-11T17:04:43;12.05;74.30
5938;DHT22;2994;51.220;4.412;2023-02-11T17:07:09;12.04;74.25
5938;DHT22;2994;51.220;4.412;2023-02-11T17:09:34;11.98;74.45
5938;DHT22;2994;51.220;4.412;2023-02-11T17:12:00;11.92;74.57
5938;DHT22;2994;51.220;4.412;2023-02-11T17:14:25;11.94;74.57
5938;DHT22;2994;51.220;4.412;2023-02-11T17:16:51;11.94;74.53
5938;DHT22;2994;51.220;4.412;2023-02-11T17:19:18;11.98;74.57
5938;DHT22;2994;51.220;4.412;2023-02-11T17:21:46;11.97;74.47
5938;DHT22;2994;51.220;4.412;2023-02-11T17:24:12;12.02;74.22
5938;DHT22;2994;51.220;4.412;2023-02-11T17:26:39;12.06;74.13
5938;DHT22;2994;51.220;4.412;2023-02-11T17:29:06;12.08;74.02
5938;DHT22;2994;51.220;4.412;2023-02-11T17:31:32;12.10;73.97
5938;DHT22;2994;51.220;4.412;2023-02-11T17:33:57;11.89;74.58
5938;DHT22;2994;51.220;4.412;2023-02-11T17:36:23;11.96;74.31
5938;DHT22;2994;51.220;4.412;2023-02-11T17:38:48;11.99;74.24
5938;DHT22;2994;51.220;4.412;2023-02-11T17:41:15;12.00;74.04
5938;DHT22;2994;51.220;4.412;2023-02-11T17:43:41;11.97;74.19
5938;DHT22;2994;51.220;4.412;2023-02-11T17:46:07;11.81;74.88
5938;DHT22;2994;51.220;4.412;2023-02-11T17:48:38;11.60;75.67
5938;DHT22;2994;51.220;4.412;2023-02-11T17:51:05;11.60;75.74
5938;DHT22;2994;51.220;4.412;2023-02-11T17:53:32;11.34;76.90
5938;DHT22;2994;51.220;4.412;2023-02-11T17:56:00;11.42;76.67
5938;DHT22;2994;51.220;4.412;2023-02-11T17:58:30;11.46;76.53
5938;DHT22;2994;51.220;4.412;2023-02-11T18:00:57;11.49;76.34
5938;DHT22;2994;51.220;4.412;2023-02-11T18:03:23;11.53;76.24
5938;DHT22;2994;51.220;4.412;2023-02-11T18:05:48;11.55;76.21
5938;DHT22;2994;51.220;4.412;2023-02-11T18:08:13;11.41;76.76
5938;DHT22;2994;51.220;4.412;2023-02-11T18:10:40;11.44;76.60
5938;DHT22;2994;51.220;4.412;2023-02-11T18:13:06;11.53;76.27
5938;DHT22;2994;51.220;4.412;2023-02-11T18:15:32;11.40;76.79
5938;DHT22;2994;51.220;4.412;2023-02-11T18:17:57;11.40;76.87
5938;DHT22;2994;51.220;4.412;2023-02-11T18:20:23;11.40;77.02
5938;DHT22;2994;51.220;4.412;2023-02-11T18:22:55;11.49;76.60
5938;DHT22;2994;51.220;4.412;2023-02-11T18:25:20;11.34;77.24
5938;DHT22;2994;51.220;4.412;2023-02-11T18:27:45;11.49;76.52
5938;DHT22;2994;51.220;4.412;2023-02-11T18:30:16;11.53;76.44
5938;DHT22;2994;51.220;4.412;2023-02-11T18:32:41;11.55;76.32
5938;DHT22;2994;51.220;4.412;2023-02-11T18:35:09;11.62;76.05
5938;DHT22;2994;51.220;4.412;2023-02-11T18:37:38;11.66;75.92
5938;DHT22;2994;51.220;4.412;2023-02-11T18:40:04;11.57;76.08
5938;DHT22;2994;51.220;4.412;2023-02-11T18:42:29;11.58;76.06
5938;DHT22;2994;51.220;4.412;2023-02-11T18:44:57;11.64;75.80
5938;DHT22;2994;51.220;4.412;2023-02-11T18:47:25;11.47;76.60